PDT,Max TemperatureF,Mean TemperatureF,Min TemperatureF,Max Dew PointF,MeanDew PointF,Min DewpointF,Max Humidity, Mean Humidity, Min Humidity, Max Sea Level PressureIn, Mean Sea Level PressureIn, Min Sea Level PressureIn, Max VisibilityMiles, Mean VisibilityMiles, Min VisibilityMiles, Max Wind SpeedMPH, Mean Wind SpeedMPH, Max Gust SpeedMPH,PrecipitationIn, CloudCover, Events, WindDirDegrees
2013-3-1,71,60,49,23,14,9,19,15,11,30.24,30.19,30.13,,,,36,20,44,0.00,,,52
2013-3-2,80,58,35,27,23,17,59,35,10,30.21,30.13,30.04,,,,22,7,26,0.00,,,53
2013-3-3,70,51,32,39,27,21,69,43,17,30.07,30.00,29.94,,,,22,8,25,0.00,,,228
2013-3-4,64,51,38,46,41,38,100,73,46,30.05,29.98,29.92,,,,18,7,28,0.00,,,228
2013-3-5,67,51,35,46,40,33,85,60,34,30.03,30.00,29.95,,,,16,6,22,0.00,,,224
2013-3-6,60,52,43,41,38,31,89,68,47,30.05,29.98,29.93,,,,20,9,24,0.00,,,234
2013-3-7,54,42,30,45,37,29,92,73,54,29.96,29.90,29.80,,,,22,6,26,0.00,,,236
2013-3-8,45,40,35,42,37,33,100,88,76,29.99,29.85,29.72,,,,25,10,32,1.10,,,229
2013-3-9,49,45,40,43,37,30,100,86,71,30.14,30.05,29.94,,,,24,12,32,0.24,,,255
2013-3-10,65,48,31,42,29,20,92,55,18,30.19,30.15,30.09,,,,25,10,29,0.00,,,47
2013-3-11,73,51,29,39,28,22,75,45,15,30.15,30.08,29.99,,,,20,5,22,0.00,,,48
2013-3-12,77,56,34,40,26,21,70,42,14,30.04,30.01,29.96,,,,24,9,31,0.00,,,46
2013-3-13,81,61,41,34,29,25,62,38,13,30.07,30.04,29.99,,,,25,9,30,0.00,,,49
2013-3-14,84,64,43,47,33,27,71,42,13,30.06,30.02,29.97,,,,21,9,26,0.00,,,60
2013-3-15,80,61,41,45,39,35,76,49,22,30.01,29.95,29.90,,,,18,7,22,0.00,,,93
2013-3-16,73,56,38,47,37,24,92,56,19,29.91,29.87,29.81,,,,20,8,25,0.00,,,66
2013-3-17,73,53,33,50,39,31,93,60,27,29.92,29.89,29.86,,,,20,7,23,0.00,,,111
2013-3-18,67,51,34,48,40,33,96,64,32,30.00,29.94,29.91,,,,18,6,23,0.00,,,199
2013-3-19,74,55,36,45,38,34,93,60,27,30.04,30.00,29.96,,,,20,6,26,0.00,,,341
2013-3-20,74,56,38,44,40,36,83,55,27,30.04,29.97,29.92,,,,17,6,25,0.00,,,310
2013-3-21,65,52,38,47,40,35,96,70,43,29.91,29.82,29.76,,,,17,6,22,0.00,,,258
2013-3-22,70,54,37,49,43,36,100,72,43,29.86,29.78,29.72,,,,18,4,22,0.00,,,219
2013-3-23,71,52,32,48,30,17,93,54,14,29.96,29.89,29.83,,,,28,10,33,0.00,,,57
2013-3-24,76,55,33,46,33,25,82,50,17,29.95,29.90,29.83,,,,14,6,18,0.00,,,43
2013-3-25,78,56,34,44,34,26,70,43,15,29.93,29.89,29.84,,,,18,6,22,0.00,,,38
2013-3-26,72,54,35,38,34,29,82,52,22,29.90,29.87,29.84,,,,20,9,26,0.00,,,108
2013-3-27,71,55,38,40,34,29,70,47,24,29.98,29.92,29.86,,,,18,7,23,0.00,,,231
2013-3-28,75,55,35,44,39,34,85,56,27,30.01,29.97,29.94,,,,18,8,28,0.00,,,317
2013-3-29,76,56,35,50,41,33,89,57,25,30.05,30.01,29.99,,,,16,7,21,0.00,,,177
2013-3-30,74,58,42,48,44,36,83,55,27,30.05,30.01,29.97,,,,18,6,24,0.00,,,287
2013-3-31,66,51,35,48,41,35,92,66,40,30.06,30.03,29.99,,,,22,8,29,0.00,,,238